Camden, Texas
Current Conditions -  °F | °C
As of 3:53 AM on Saturday 22 Nov 2014 (Local Time) from KLFK Reporting Station
Broken Clouds Broken Clouds  
Wind Chill: 59°   Ceiling: 2400
Heat Index: 59°   Visibility: 10mi
Dew Point: 52°   Wind: 8mph
Humidity: 78%   Direction: 110°ESE
Pressure: 30.14"   Gusts: NA
Location:  30.92°N, 94.73°W
Report Text: KLFK 220953Z AUTO 11007KT 10SM BKN024 BKN095 15/11 A3014 RMK AO2 SLP203 T01500111
Loading
Personal Weather Stations






























Interactive Weather Map New forecast layout! Learn more

10-Day Weather Forecast

Advertisements
Track Severe Weather on mobile